Time;durP1;ratioP1;P1;durP2;ratioP2;P2;SDS_P1;SDS_P2;PMS_P1;PMS_P2;Temp;Humidity;BMP_temperature;BMP_pressure;BME280_temperature;BME280_humidity;BME280_pressure;Samples;Min_cycle;Max_cycle;Signal;HPM_P1;HPM_P2
2022/06/13 00:00:04;;;;;;;7.43;3.37;;;;;;;14.93;64.40;100690.41;5063876;28;20440;-71
2022/06/13 00:02:31;;;;;;;10.63;3.20;;;;;;;14.98;64.58;100684.53;5041132;28;20478;-71
2022/06/13 00:05:00;;;;;;;4.00;2.73;;;;;;;14.98;64.62;100682.69;5041623;28;20452;-69
2022/06/13 00:07:27;;;;;;;6.57;2.83;;;;;;;14.99;64.42;100689.75;5042121;28;20477;-71
2022/06/13 00:09:54;;;;;;;4.33;2.83;;;;;;;14.83;65.11;100690.50;5056559;28;20452;-70
2022/06/13 00:12:21;;;;;;;6.83;2.70;;;;;;;14.83;65.03;100695.88;5060949;28;21010;-71
2022/06/13 00:14:48;;;;;;;7.50;3.53;;;;;;;14.71;65.59;100682.84;5062367;28;20437;-71
2022/06/13 00:17:14;;;;;;;8.73;3.43;;;;;;;14.77;65.74;100690.28;5060578;28;20480;-72
2022/06/13 00:19:41;;;;;;;4.10;2.67;;;;;;;14.73;65.89;100689.75;5073272;28;20452;-67
2022/06/13 00:22:09;;;;;;;8.40;4.07;;;;;;;14.71;65.59;100688.22;5061457;28;20480;-71
2022/06/13 00:24:36;;;;;;;7.47;3.47;;;;;;;14.68;65.67;100684.00;5062645;28;20536;-72
2022/06/13 00:27:04;;;;;;;7.03;3.30;;;;;;;14.61;65.94;100689.16;5060335;28;20476;-72
2022/06/13 00:29:31;;;;;;;10.00;3.77;;;;;;;14.57;65.97;100689.59;5066363;28;21033;-72
2022/06/13 00:31:58;;;;;;;10.73;3.37;;;;;;;14.55;66.02;100689.75;5060484;28;20476;-72
2022/06/13 00:34:24;;;;;;;6.27;3.70;;;;;;;14.52;66.26;100700.81;5061964;28;20456;-71
2022/06/13 00:36:51;;;;;;;6.90;3.43;;;;;;;14.63;66.25;100695.25;5061468;28;20480;-71
2022/06/13 00:39:19;;;;;;;10.40;3.47;;;;;;;14.66;66.15;100697.59;5069091;28;20452;-72
2022/06/13 00:41:47;;;;;;;6.97;3.13;;;;;;;14.73;66.11;100694.28;5060893;28;20473;-71
2022/06/13 00:44:20;;;;;;;7.47;4.00;;;;;;;14.73;66.29;100686.22;5061736;28;20524;-69
2022/06/13 00:46:47;;;;;;;8.43;3.53;;;;;;;14.64;66.30;100685.31;5058921;28;20475;-70
2022/06/13 00:49:17;;;;;;;6.57;3.70;;;;;;;14.77;65.78;100682.19;5069247;28;21004;-70
2022/06/13 00:51:47;;;;;;;4.60;3.23;;;;;;;14.70;65.93;100684.66;5060853;28;20488;-69
2022/06/13 00:54:15;;;;;;;11.40;3.30;;;;;;;14.61;66.07;100681.06;5061960;28;20441;-70
2022/06/13 00:56:43;;;;;;;5.67;3.23;;;;;;;14.54;66.13;100660.31;5061621;28;20469;-70
2022/06/13 00:59:13;;;;;;;10.87;4.33;;;;;;;14.47;66.41;100660.09;5062399;28;20445;-70
2022/06/13 01:01:40;;;;;;;5.03;4.17;;;;;;;14.42;66.55;100665.91;5059234;28;20841;-69
2022/06/13 01:04:08;;;;;;;4.67;2.80;;;;;;;14.34;67.20;100667.69;5061193;28;20464;-70
2022/06/13 01:06:37;;;;;;;6.10;3.00;;;;;;;14.26;67.46;100665.78;5061148;28;20468;-70
2022/06/13 01:09:05;;;;;;;6.57;3.50;;;;;;;14.19;67.57;100659.34;5068272;28;20488;-68
2022/06/13 01:11:31;;;;;;;10.60;3.40;;;;;;;14.13;67.86;100653.59;5062932;28;20477;-71
2022/06/13 01:14:27;;;;;;;7.17;3.23;;;;;;;14.11;68.42;100663.66;5061379;28;20437;-71
2022/06/13 01:17:08;;;;;;;6.73;4.10;;;;;;;14.06;68.65;100655.22;5058009;28;20566;-70
2022/06/13 01:20:07;;;;;;;11.03;3.90;;;;;;;13.98;69.24;100657.81;5071848;28;20448;-68
2022/06/13 01:23:12;;;;;;;9.87;3.87;;;;;;;13.91;69.75;100656.72;5070285;28;20529;-70
2022/06/13 01:26:27;;;;;;;4.20;3.37;;;;;;;13.86;69.81;100659.88;5060559;28;20467;-70
2022/06/13 01:29:19;;;;;;;5.03;3.07;;;;;;;13.82;69.98;100658.50;5060695;28;20488;-71
2022/06/13 01:31:50;;;;;;;10.70;3.97;;;;;;;13.75;70.47;100668.16;5056416;28;20485;-71
2022/06/13 01:34:24;;;;;;;6.53;3.47;;;;;;;13.72;70.99;100663.06;5061297;28;20463;-69
2022/06/13 01:37:00;;;;;;;5.33;3.17;;;;;;;13.68;70.63;100662.53;5059600;28;20484;-71
2022/06/13 01:39:37;;;;;;;8.73;3.53;;;;;;;13.55;70.97;100659.34;5070379;28;20447;-70
2022/06/13 01:42:11;;;;;;;5.93;3.90;;;;;;;13.51;71.46;100669.56;5059625;28;20483;-70
2022/06/13 01:44:45;;;;;;;9.83;4.70;;;;;;;13.48;71.27;100664.47;5060937;28;20444;-71
2022/06/13 01:47:19;;;;;;;7.60;3.57;;;;;;;13.48;71.36;100666.31;5059043;28;20484;-68
2022/06/13 01:49:54;;;;;;;8.97;4.70;;;;;;;13.47;71.47;100665.47;5070116;28;20490;-71
2022/06/13 01:52:27;;;;;;;9.27;4.30;;;;;;;13.47;71.48;100665.47;5060609;28;20480;-69
2022/06/13 01:54:57;;;;;;;7.60;4.17;;;;;;;13.52;71.17;100676.63;5059899;28;20856;-70
2022/06/13 01:57:30;;;;;;;8.60;4.17;;;;;;;13.54;71.23;100671.94;5060866;28;20952;-70
2022/06/13 02:00:10;;;;;;;11.17;4.77;;;;;;;13.56;71.15;100667.25;5069455;28;20441;-72
2022/06/13 02:02:51;;;;;;;9.20;4.60;;;;;;;13.54;71.13;100663.88;5029538;28;20458;-71
2022/06/13 02:05:27;;;;;;;7.67;4.00;;;;;;;13.54;71.15;100666.56;5042176;28;20430;-69
2022/06/13 02:08:17;;;;;;;6.80;3.73;;;;;;;13.54;70.72;100674.63;5061094;28;20445;-71
2022/06/13 02:10:47;;;;;;;7.80;4.10;;;;;;;13.47;71.04;100665.47;5065300;28;20563;-71
2022/06/13 02:13:33;;;;;;;8.50;4.07;;;;;;;13.42;71.17;100673.13;5059694;28;20441;-71
2022/06/13 02:16:03;;;;;;;7.50;4.00;;;;;;;13.36;71.67;100668.34;5059366;28;20484;-71
2022/06/13 02:18:34;;;;;;;10.50;5.60;;;;;;;13.28;71.89;100669.06;5060205;28;20449;-71
2022/06/13 02:21:06;;;;;;;14.20;4.40;;;;;;;13.23;72.20;100671.34;5066637;28;20479;-71
2022/06/13 02:23:38;;;;;;;8.87;4.47;;;;;;;13.36;71.90;100662.97;5059758;28;20500;-71
2022/06/13 02:26:10;;;;;;;7.63;4.90;;;;;;;13.17;72.43;100648.59;5059442;28;20483;-71
2022/06/13 02:28:40;;;;;;;6.97;4.30;;;;;;;13.31;72.17;100643.75;5059830;28;20488;-69
2022/06/13 02:31:12;;;;;;;7.87;4.40;;;;;;;13.02;72.95;100650.09;5050602;28;20595;-68
2022/06/13 02:33:44;;;;;;;7.93;3.87;;;;;;;12.90;73.43;100646.75;5060004;28;20518;-70
2022/06/13 02:36:15;;;;;;;9.60;4.80;;;;;;;12.69;74.67;100655.00;5060261;28;20481;-68
2022/06/13 02:38:47;;;;;;;14.03;5.20;;;;;;;12.59;75.04;100659.53;5060227;28;20453;-71
2022/06/13 02:41:16;;;;;;;10.53;4.20;;;;;;;12.62;74.99;100656.56;5059532;28;21013;-71
2022/06/13 02:43:46;;;;;;;8.10;4.43;;;;;;;12.69;75.18;100659.50;5059973;28;20441;-69
2022/06/13 02:46:17;;;;;;;9.90;4.73;;;;;;;12.73;74.62;100668.97;5058860;28;20477;-71
2022/06/13 02:48:47;;;;;;;12.03;4.53;;;;;;;12.85;74.12;100665.13;5059631;28;20484;-71
2022/06/13 02:51:19;;;;;;;12.10;4.80;;;;;;;12.94;74.09;100666.91;5059252;28;20481;-70
2022/06/13 02:53:51;;;;;;;13.80;5.13;;;;;;;13.07;74.18;100674.66;5060491;28;20433;-73
2022/06/13 02:56:25;;;;;;;12.30;4.87;;;;;;;13.14;73.96;100670.41;5059336;28;20484;-72
2022/06/13 02:59:04;;;;;;;11.43;5.07;;;;;;;13.27;73.78;100674.59;5060034;28;20440;-73
2022/06/13 03:01:34;;;;;;;7.33;4.30;;;;;;;13.30;73.42;100671.63;5058990;28;20480;-74
2022/06/13 03:04:07;;;;;;;10.40;4.40;;;;;;;13.34;73.22;100678.41;5058904;28;20452;-74
2022/06/13 03:06:42;;;;;;;9.73;4.70;;;;;;;13.37;73.34;100670.06;5060654;28;20473;-74
2022/06/13 03:09:12;;;;;;;9.40;4.47;;;;;;;13.44;72.60;100675.69;5059097;28;20495;-72
2022/06/13 03:11:48;;;;;;;7.33;4.50;;;;;;;13.49;72.28;100679.59;5059281;28;20530;-71
2022/06/13 03:14:35;;;;;;;9.23;4.43;;;;;;;13.52;72.09;100675.75;5059887;28;20522;-74
2022/06/13 03:17:04;;;;;;;9.23;4.97;;;;;;;13.58;72.31;100674.34;5066559;28;20467;-74
2022/06/13 03:19:36;;;;;;;11.90;5.03;;;;;;;13.62;72.39;100673.03;5066890;28;20480;-74
2022/06/13 03:22:06;;;;;;;9.07;4.00;;;;;;;13.70;72.39;100673.13;5058245;28;20492;-72
2022/06/13 03:24:39;;;;;;;7.00;4.90;;;;;;;13.81;72.32;100666.69;5060187;28;20437;-74
2022/06/13 03:27:10;;;;;;;8.37;3.57;;;;;;;13.65;71.78;100670.88;5062498;28;20534;-74
2022/06/13 03:29:40;;;;;;;4.80;3.30;;;;;;;13.73;71.99;100664.75;5059997;28;20499;-71
2022/06/13 03:32:11;;;;;;;8.70;3.90;;;;;;;13.74;71.53;100658.38;5057644;28;20477;-72
2022/06/13 03:34:42;;;;;;;6.63;3.83;;;;;;;13.73;71.21;100652.19;5059703;28;20478;-72
2022/06/13 03:37:12;;;;;;;8.23;3.87;;;;;;;13.89;71.01;100651.50;5058782;28;20472;-72
2022/06/13 03:39:42;;;;;;;8.50;3.77;;;;;;;14.09;70.77;100659.41;5062131;28;21039;-72
2022/06/13 03:42:12;;;;;;;5.93;3.80;;;;;;;14.06;71.42;100665.09;5062520;28;20997;-71
2022/06/13 03:44:43;;;;;;;6.83;3.90;;;;;;;14.03;71.71;100666.25;5062538;28;20436;-70
2022/06/13 03:47:15;;;;;;;6.90;3.90;;;;;;;14.01;71.57;100670.09;5061354;28;20484;-70
2022/06/13 03:49:47;;;;;;;6.27;4.03;;;;;;;14.02;71.32;100679.84;5063244;28;20492;-71
2022/06/13 03:52:15;;;;;;;7.23;4.20;;;;;;;14.11;71.51;100677.09;5061799;28;20476;-71
2022/06/13 03:54:45;;;;;;;6.23;3.93;;;;;;;14.20;71.13;100674.47;5064133;28;20441;-72
2022/06/13 03:57:17;;;;;;;6.50;4.10;;;;;;;14.20;71.30;100686.09;5059277;28;20491;-71
2022/06/13 03:59:47;;;;;;;7.30;3.80;;;;;;;14.23;71.67;100717.19;5062787;28;20455;-69
2022/06/13 04:02:16;;;;;;;10.37;4.67;;;;;;;14.04;71.67;100721.69;5060646;28;20499;-70
2022/06/13 04:04:47;;;;;;;6.43;4.03;;;;;;;13.81;73.16;100723.13;5062973;28;20453;-71
2022/06/13 04:07:15;;;;;;;8.50;5.97;;;;;;;13.49;75.26;100725.28;5061847;28;20530;-71
2022/06/13 04:09:45;;;;;;;8.90;4.70;;;;;;;13.51;76.34;100720.59;5063260;28;20548;-72
2022/06/13 04:12:40;;;;;;;10.20;5.50;;;;;;;13.41;77.38;100713.56;5060528;28;20480;-70
2022/06/13 04:15:32;;;;;;;12.33;5.80;;;;;;;13.28;78.43;100713.84;5060701;28;20448;-68
2022/06/13 04:18:06;;;;;;;9.00;5.43;;;;;;;13.19;79.02;100703.03;5060963;28;20453;-72
2022/06/13 04:20:42;;;;;;;11.60;6.37;;;;;;;13.28;78.62;100690.56;5061559;28;20479;-71
2022/06/13 04:23:15;;;;;;;8.73;6.10;;;;;;;13.44;78.81;100700.69;5062222;28;20476;-69
2022/06/13 04:25:47;;;;;;;11.97;6.40;;;;;;;13.51;78.77;100691.03;5058440;28;20828;-70
2022/06/13 04:28:18;;;;;;;9.40;5.90;;;;;;;13.60;78.78;100685.78;5062723;28;20472;-71
2022/06/13 04:30:46;;;;;;;9.50;6.00;;;;;;;13.81;77.06;100680.13;5061048;28;20473;-70
2022/06/13 04:33:17;;;;;;;8.73;5.47;;;;;;;14.07;75.62;100675.69;5058292;28;20465;-69
2022/06/13 04:35:46;;;;;;;8.07;4.83;;;;;;;14.21;75.71;100674.31;5061350;28;20464;-71
2022/06/13 04:38:15;;;;;;;10.30;5.10;;;;;;;14.19;76.00;100676.31;5061582;28;20444;-75
2022/06/13 04:40:43;;;;;;;7.87;5.30;;;;;;;14.07;77.78;100674.84;5060786;28;20472;-68
2022/06/13 04:43:13;;;;;;;7.57;4.87;;;;;;;13.86;77.48;100677.84;5060378;28;20452;-69
2022/06/13 04:45:47;;;;;;;17.23;6.07;;;;;;;13.74;78.04;100674.50;5056894;28;20460;-68
2022/06/13 04:48:14;;;;;;;10.50;5.80;;;;;;;13.75;78.28;100668.16;5061052;28;20461;-68
2022/06/13 04:50:43;;;;;;;10.73;5.93;;;;;;;13.82;78.62;100665.69;5060838;28;20475;-68
2022/06/13 04:53:15;;;;;;;8.87;5.60;;;;;;;14.04;77.33;100672.47;5061585;28;20452;-69
2022/06/13 04:55:43;;;;;;;11.13;5.10;;;;;;;13.86;76.77;100678.69;5061320;28;20487;-68
2022/06/13 04:58:18;;;;;;;11.83;5.27;;;;;;;13.92;77.71;100682.59;5062715;28;20444;-68
2022/06/13 05:00:46;;;;;;;10.97;5.37;;;;;;;14.00;77.69;100689.91;5059833;28;20468;-68
2022/06/13 05:03:20;;;;;;;9.60;4.23;;;;;;;14.26;77.07;100690.00;5060893;28;20445;-68
2022/06/13 05:05:56;;;;;;;9.80;5.40;;;;;;;14.32;76.49;100694.75;5064323;28;20506;-68
2022/06/13 05:08:26;;;;;;;6.97;4.57;;;;;;;14.39;75.36;100689.59;5061263;28;21015;-69
2022/06/13 05:10:59;;;;;;;4.47;3.67;;;;;;;14.54;73.59;100684.53;5060488;28;20491;-68
2022/06/13 05:13:27;;;;;;;6.37;5.03;;;;;;;14.59;72.29;100671.47;5061547;28;20455;-69
2022/06/13 05:16:00;;;;;;;6.03;3.67;;;;;;;14.71;71.96;100675.59;5061270;28;20482;-67
2022/06/13 05:18:52;;;;;;;13.87;4.30;;;;;;;14.80;72.69;100680.03;5060131;28;21103;-68
2022/06/13 05:21:34;;;;;;;11.03;4.17;;;;;;;14.91;72.32;100692.38;5059667;28;20506;-68
2022/06/13 05:24:28;;;;;;;8.90;3.77;;;;;;;14.88;72.76;100703.50;5060842;28;20490;-72
2022/06/13 05:26:55;;;;;;;10.20;3.90;;;;;;;14.79;71.37;100701.72;5060390;28;20471;-67
2022/06/13 05:29:25;;;;;;;8.70;3.20;;;;;;;14.93;70.55;100694.94;5060660;28;20480;-67
2022/06/13 05:31:53;;;;;;;5.93;3.57;;;;;;;14.87;70.84;100707.19;5060249;28;20490;-67
2022/06/13 05:34:31;;;;;;;6.03;3.20;;;;;;;14.83;71.60;100701.25;5060567;28;20568;-67
2022/06/13 05:37:00;;;;;;;8.63;3.60;;;;;;;14.74;71.67;100702.22;5060592;28;20473;-68
2022/06/13 05:39:34;;;;;;;5.90;3.20;;;;;;;14.95;71.80;100704.53;5060404;28;20445;-68
2022/06/13 05:42:05;;;;;;;6.93;3.10;;;;;;;14.85;69.51;100712.72;5044581;28;20484;-68
2022/06/13 05:44:34;;;;;;;4.20;2.80;;;;;;;14.97;70.72;100715.16;5040859;28;20461;-67
2022/06/13 05:47:02;;;;;;;7.50;3.67;;;;;;;14.99;69.83;100711.28;5040253;28;20501;-67
2022/06/13 05:49:31;;;;;;;6.40;3.53;;;;;;;15.22;68.73;100711.63;5049122;28;20547;-68
2022/06/13 05:51:58;;;;;;;5.40;2.83;;;;;;;15.36;69.09;100714.72;5060361;28;20479;-67
2022/06/13 05:54:24;;;;;;;6.70;3.33;;;;;;;15.40;68.10;100721.50;5061075;28;20429;-67
2022/06/13 05:56:53;;;;;;;5.07;2.70;;;;;;;15.52;67.85;100703.16;5060272;28;20484;-67
2022/06/13 05:59:19;;;;;;;9.30;3.30;;;;;;;15.83;66.59;100706.16;5060795;28;20493;-67
2022/06/13 06:01:46;;;;;;;5.07;3.20;;;;;;;16.15;65.14;100709.97;5059145;28;20481;-67
2022/06/13 06:04:13;;;;;;;5.70;2.50;;;;;;;16.99;63.10;100717.94;5047220;28;20457;-68
2022/06/13 06:06:40;;;;;;;6.33;2.80;;;;;;;17.92;59.58;100703.81;5040439;28;20473;-68
2022/06/13 06:09:07;;;;;;;6.40;2.70;;;;;;;18.25;57.64;100722.56;5040671;28;20461;-68
2022/06/13 06:11:34;;;;;;;5.27;2.20;;;;;;;18.58;56.60;100723.16;5039697;28;20607;-68
2022/06/13 06:14:02;;;;;;;4.23;2.40;;;;;;;19.67;53.92;100716.47;5040617;28;20462;-68
2022/06/13 06:16:29;;;;;;;7.70;2.50;;;;;;;21.37;47.55;100731.31;5039769;28;20508;-67
2022/06/13 06:18:56;;;;;;;2.40;1.73;;;;;;;21.32;47.82;100729.19;5057366;28;20478;-68
2022/06/13 06:21:23;;;;;;;4.57;2.27;;;;;;;21.21;47.12;100718.88;5059604;28;20476;-69
2022/06/13 06:23:50;;;;;;;4.97;2.50;;;;;;;22.02;47.05;100720.97;5060314;28;20531;-68
2022/06/13 06:26:20;;;;;;;5.77;2.50;;;;;;;22.24;44.95;100713.50;5060028;28;20476;-68
2022/06/13 06:28:47;;;;;;;7.90;2.20;;;;;;;21.10;47.19;100725.69;5059803;28;20441;-68
2022/06/13 06:31:15;;;;;;;6.27;2.67;;;;;;;23.39;42.90;100718.78;5059804;28;20475;-68
2022/06/13 06:33:42;;;;;;;4.23;2.20;;;;;;;22.27;44.13;100713.13;5056389;28;20454;-67
2022/06/13 06:36:09;;;;;;;4.17;2.40;;;;;;;21.59;45.56;100722.03;5048639;28;20495;-68
2022/06/13 06:38:37;;;;;;;3.93;2.17;;;;;;;23.16;42.72;100721.13;5060138;28;20456;-69
2022/06/13 06:41:04;;;;;;;7.83;2.80;;;;;;;20.21;48.96;100718.00;5059925;28;20468;-68
2022/06/13 06:43:30;;;;;;;6.37;2.53;;;;;;;19.13;50.27;100729.28;5060285;28;20459;-72
2022/06/13 06:45:57;;;;;;;5.67;2.60;;;;;;;19.20;52.51;100723.97;5058881;28;20484;-67
2022/06/13 06:48:26;;;;;;;5.03;2.50;;;;;;;18.54;54.17;100718.25;5059583;28;20455;-68
2022/06/13 06:50:53;;;;;;;9.33;3.40;;;;;;;19.51;52.64;100718.38;5059715;28;20481;-68
2022/06/13 06:53:22;;;;;;;7.53;2.73;;;;;;;18.17;54.97;100722.59;5055871;28;20461;-67
2022/06/13 07:01:19;;;;;;;10.53;3.30;;;;;;;18.49;55.94;100740.50;5039041;28;20476;-68
2022/06/13 07:03:47;;;;;;;6.20;3.07;;;;;;;18.70;54.89;100742.53;5038108;28;21329;-67
2022/06/13 07:06:15;;;;;;;6.57;3.17;;;;;;;19.35;53.39;100740.25;5039395;28;20469;-68
2022/06/13 07:08:43;;;;;;;5.90;2.83;;;;;;;20.65;48.91;100744.97;5039654;28;20464;-69
2022/06/13 07:13:59;;;;;;;6.30;2.90;;;;;;;20.28;49.11;100735.19;5042632;28;20457;-68
2022/06/13 07:16:26;;;;;;;5.90;3.00;;;;;;;21.67;47.54;100750.97;5053335;28;20472;-68
2022/06/13 07:18:54;;;;;;;5.40;3.07;;;;;;;22.05;44.33;100738.75;5061986;28;20453;-68
2022/06/13 07:21:21;;;;;;;8.03;3.30;;;;;;;21.88;44.32;100741.88;5062780;28;20481;-67
2022/06/13 07:23:47;;;;;;;6.50;2.23;;;;;;;21.53;46.57;100752.78;5062655;28;20480;-68
2022/06/13 07:26:14;;;;;;;4.67;2.70;;;;;;;21.98;44.98;100749.66;5061983;28;20476;-68
2022/06/13 07:28:41;;;;;;;6.73;2.87;;;;;;;20.97;48.13;100753.63;5062744;28;20443;-67
2022/06/13 07:31:11;;;;;;;6.27;2.50;;;;;;;20.85;48.07;100755.22;5062478;28;20480;-69
2022/06/13 07:33:37;;;;;;;7.70;2.60;;;;;;;21.22;46.70;100753.19;5061805;28;20687;-69
2022/06/13 07:36:06;;;;;;;4.23;2.80;;;;;;;20.83;48.23;100754.53;5062772;28;20464;-69
2022/06/13 07:38:33;;;;;;;7.70;3.00;;;;;;;20.04;48.98;100758.09;5062655;28;20479;-69
2022/06/13 07:41:01;;;;;;;8.57;3.00;;;;;;;20.31;50.64;100751.06;5049114;28;20473;-69
2022/06/13 07:43:31;;;;;;;4.60;2.80;;;;;;;21.57;47.26;100761.38;5043118;28;20449;-69
2022/06/13 07:45:59;;;;;;;6.20;3.47;;;;;;;22.16;44.86;100758.09;5041848;28;20500;-68
2022/06/13 07:48:27;;;;;;;8.57;3.10;;;;;;;22.53;43.38;100753.19;5041360;28;20479;-68
2022/06/13 07:50:54;;;;;;;9.20;2.90;;;;;;;21.85;44.21;100755.88;5042227;28;20481;-68
2022/06/13 07:53:22;;;;;;;13.07;3.53;;;;;;;23.34;41.30;100751.31;5042224;28;20517;-66
2022/06/13 07:55:49;;;;;;;7.53;2.90;;;;;;;22.53;43.59;100755.91;5046454;28;20602;-68
2022/06/13 07:58:17;;;;;;;8.63;3.27;;;;;;;22.47;42.86;100758.63;5042254;28;20446;-68
2022/06/13 08:00:45;;;;;;;8.43;2.80;;;;;;;23.80;39.39;100754.97;5047205;28;20475;-67
2022/06/13 08:03:16;;;;;;;6.30;3.20;;;;;;;25.37;37.60;100759.88;5061033;28;20461;-67
2022/06/13 08:05:43;;;;;;;8.23;3.73;;;;;;;26.87;33.97;100752.03;5061993;28;20476;-69
2022/06/13 08:08:10;;;;;;;6.00;3.03;;;;;;;24.48;38.37;100770.84;5061919;28;20433;-70
2022/06/13 08:10:39;;;;;;;9.50;3.40;;;;;;;24.77;38.63;100763.97;5061394;28;20468;-70
2022/06/13 08:13:06;;;;;;;7.30;3.80;;;;;;;26.12;35.03;100761.56;5062036;28;20445;-68
2022/06/13 08:15:33;;;;;;;7.37;3.07;;;;;;;24.14;36.81;100766.63;5061552;28;20464;-67
2022/06/13 08:18:00;;;;;;;5.73;2.80;;;;;;;24.36;37.27;100765.25;5060665;28;20448;-68
2022/06/13 08:20:27;;;;;;;10.03;3.20;;;;;;;23.42;39.94;100764.75;5062216;28;20467;-67
2022/06/13 08:22:55;;;;;;;8.40;3.20;;;;;;;23.88;38.18;100768.41;5061791;28;20487;-68
2022/06/13 08:25:25;;;;;;;8.87;3.70;;;;;;;24.43;37.26;100774.25;5060329;28;20433;-68
2022/06/13 08:27:54;;;;;;;6.93;3.20;;;;;;;24.29;36.72;100771.81;5061700;28;20437;-73
2022/06/13 08:30:20;;;;;;;7.07;3.40;;;;;;;24.12;37.53;100766.84;5054066;28;20489;-68
2022/06/13 08:32:47;;;;;;;9.50;3.47;;;;;;;26.91;33.85;100758.72;5040461;28;20458;-70
2022/06/13 08:35:15;;;;;;;5.07;2.73;;;;;;;24.28;37.70;100762.75;5041503;28;20430;-68
2022/06/13 08:37:42;;;;;;;9.77;3.73;;;;;;;23.86;39.17;100771.34;5041695;28;20453;-69
2022/06/13 08:40:10;;;;;;;8.53;5.00;;;;;;;23.08;41.65;100769.38;5040692;28;20453;-68
2022/06/13 08:42:39;;;;;;;10.63;3.63;;;;;;;23.97;40.51;100761.63;5041919;28;20496;-69
2022/06/13 08:45:12;;;;;;;9.90;3.43;;;;;;;26.20;33.43;100766.72;5041399;28;20437;-69
2022/06/13 08:47:45;;;;;;;9.90;3.20;;;;;;;26.25;32.90;100763.28;5039745;28;21087;-69
2022/06/13 08:50:24;;;;;;;6.87;3.10;;;;;;;27.56;32.51;100774.25;5040874;28;20444;-67
2022/06/13 08:52:55;;;;;;;13.00;4.47;;;;;;;24.28;36.23;100764.66;5040726;28;20485;-68
2022/06/13 08:55:31;;;;;;;10.57;3.43;;;;;;;22.58;37.99;100768.91;5040321;28;20458;-68
2022/06/13 08:58:06;;;;;;;8.60;3.27;;;;;;;21.76;40.77;100766.09;5041801;28;20429;-69
2022/06/13 09:00:36;;;;;;;9.30;3.40;;;;;;;20.40;43.91;100757.25;5040653;28;20473;-68
2022/06/13 09:03:09;;;;;;;6.93;3.60;;;;;;;20.85;43.39;100761.47;5039747;28;20531;-68
2022/06/13 09:05:39;;;;;;;10.47;4.00;;;;;;;21.88;42.11;100755.47;5045101;28;20843;-68
2022/06/13 09:08:11;;;;;;;9.50;3.30;;;;;;;23.27;39.46;100755.94;5061464;28;20429;-69
2022/06/13 09:10:41;;;;;;;6.37;3.27;;;;;;;22.56;39.73;100760.94;5060630;28;21060;-68
2022/06/13 09:13:13;;;;;;;9.10;3.43;;;;;;;24.04;38.02;100754.28;5061387;28;20946;-68
2022/06/13 09:15:43;;;;;;;8.00;3.50;;;;;;;26.37;33.55;100749.59;5059711;28;20495;-69
2022/06/13 09:18:15;;;;;;;10.33;3.30;;;;;;;28.20;30.72;100740.41;5060173;28;20458;-70
2022/06/13 09:20:50;;;;;;;8.53;3.57;;;;;;;25.76;33.27;100752.28;5060464;28;20460;-69
2022/06/13 09:23:23;;;;;;;8.30;3.30;;;;;;;25.17;34.98;100749.94;5060046;28;20832;-69
2022/06/13 09:25:53;;;;;;;7.20;3.30;;;;;;;25.77;34.34;100759.44;5060713;28;20469;-69
2022/06/13 09:28:23;;;;;;;7.70;3.40;;;;;;;26.06;33.66;100760.56;5060441;28;20453;-69
2022/06/13 09:30:54;;;;;;;7.00;3.43;;;;;;;27.71;31.82;100754.53;5059758;28;20492;-69
2022/06/13 09:33:27;;;;;;;10.10;3.30;;;;;;;26.80;32.07;100748.56;5060258;28;20456;-68
2022/06/13 09:35:57;;;;;;;7.80;3.00;;;;;;;24.85;36.58;100759.28;5059627;28;20481;-69
2022/06/13 09:38:25;;;;;;;9.47;3.37;;;;;;;25.18;35.19;100754.31;5057796;28;20448;-70
2022/06/13 09:41:21;;;;;;;8.20;3.53;;;;;;;26.15;34.64;100765.75;5060064;28;21068;-70
2022/06/13 09:43:56;;;;;;;14.73;4.90;;;;;;;25.69;36.07;100768.81;5060345;28;20449;-70
2022/06/13 09:46:31;;;;;;;11.33;4.70;;;;;;;25.53;36.80;100763.91;5058418;28;21069;-70
2022/06/13 09:49:05;;;;;;;9.30;4.20;;;;;;;26.22;34.64;100750.88;5059809;28;20456;-69
2022/06/13 09:51:41;;;;;;;7.93;4.30;;;;;;;26.48;34.05;100755.13;5060034;28;20480;-69
2022/06/13 09:54:14;;;;;;;8.37;4.20;;;;;;;27.34;33.22;100756.72;5052592;28;20451;-68
2022/06/13 09:56:46;;;;;;;9.53;4.53;;;;;;;28.33;32.24;100755.78;5059837;28;20476;-69
2022/06/13 09:59:23;;;;;;;9.20;4.10;;;;;;;26.79;32.55;100753.22;5060062;28;20453;-69
2022/06/13 10:01:53;;;;;;;8.83;3.67;;;;;;;24.57;36.09;100752.31;5058849;28;20471;-69
2022/06/13 10:04:26;;;;;;;8.87;3.70;;;;;;;23.50;37.84;100766.38;5059924;28;20460;-69
2022/06/13 10:06:56;;;;;;;10.67;3.67;;;;;;;21.67;41.72;100775.47;5059647;28;20537;-68
2022/06/13 10:09:32;;;;;;;6.87;3.30;;;;;;;20.48;45.11;100789.69;5057807;28;21002;-69
2022/06/13 10:12:03;;;;;;;8.23;4.13;;;;;;;19.56;47.72;100786.47;5019515;28;20486;-68
2022/06/13 10:14:48;;;;;;;10.33;3.70;;;;;;;20.46;46.24;100779.03;5020086;28;20963;-69
2022/06/13 10:17:34;;;;;;;10.23;3.23;;;;;;;23.93;38.43;100779.53;5019642;28;20549;-70
2022/06/13 10:20:07;;;;;;;6.67;3.23;;;;;;;24.30;38.33;100773.47;5020003;28;20465;-69
2022/06/13 10:22:40;;;;;;;10.03;3.40;;;;;;;25.64;36.36;100787.81;5018835;28;20474;-67
2022/06/13 10:25:17;;;;;;;5.30;2.13;;;;;;;23.79;36.63;100800.53;5019989;28;20447;-68
2022/06/13 10:27:50;;;;;;;2.33;1.20;;;;;;;23.00;37.17;100824.13;5054446;28;20444;-69
2022/06/13 10:30:25;;;;;;;5.27;1.13;;;;;;;20.41;42.55;100830.38;5058247;28;20804;-68
2022/06/13 10:33:10;;;;;;;1.87;1.00;;;;;;;18.75;46.68;100839.50;5059220;28;20492;-66
2022/06/13 10:35:46;;;;;;;3.10;1.03;;;;;;;18.15;48.64;100825.59;5059065;28;20463;-66
2022/06/13 10:38:24;;;;;;;5.23;1.00;;;;;;;17.73;50.87;100836.72;5058474;28;20452;-65
2022/06/13 10:40:51;;;;;;;10.40;1.47;;;;;;;17.75;50.40;100842.81;5058969;28;20472;-66
2022/06/13 10:43:18;;;;;;;2.40;0.70;;;;;;;18.11;50.14;100831.56;5059447;28;20445;-67
2022/06/13 10:45:45;;;;;;;4.10;1.07;;;;;;;17.80;50.54;100827.75;5057510;28;20468;-67
2022/06/13 10:48:17;;;;;;;3.63;1.40;;;;;;;17.84;51.83;100823.66;5058439;28;20495;-66
2022/06/13 10:50:48;;;;;;;3.90;1.50;;;;;;;17.53;55.07;100820.88;5058430;28;20499;-67
2022/06/13 10:53:18;;;;;;;6.03;1.60;;;;;;;17.24;57.27;100827.69;5048346;28;20461;-66
2022/06/13 10:55:46;;;;;;;4.77;2.00;;;;;;;17.63;58.51;100823.41;5038903;28;21005;-66
2022/06/13 10:58:16;;;;;;;4.37;1.43;;;;;;;17.93;57.97;100827.22;5039633;28;20625;-67
2022/06/13 11:01:02;;;;;;;5.23;1.63;;;;;;;19.14;55.93;100827.69;5040798;28;20477;-66
2022/06/13 11:03:31;;;;;;;3.40;1.50;;;;;;;20.99;48.65;100824.13;5038464;28;20699;-66
2022/06/13 11:06:01;;;;;;;2.50;1.17;;;;;;;22.17;46.37;100838.75;5046401;28;20468;-66
2022/06/13 11:08:28;;;;;;;2.80;1.10;;;;;;;23.57;43.86;100837.34;5058327;28;20417;-67
2022/06/13 11:10:57;;;;;;;1.17;0.77;;;;;;;24.09;38.95;100834.72;5058673;28;20460;-66
2022/06/13 11:13:27;;;;;;;2.73;0.97;;;;;;;23.41;38.38;100842.19;5058940;28;20455;-67
2022/06/13 11:24:19;;;;;;;1.90;0.80;;;;;;;23.08;37.31;100832.13;5059192;28;20483;-67
2022/06/13 11:29:35;;;;;;;5.50;1.60;;;;;;;24.36;37.00;100830.00;5057768;28;20440;-67
2022/06/13 11:32:04;;;;;;;2.67;1.20;;;;;;;24.57;36.30;100834.34;5058751;28;20721;-68
2022/06/13 11:34:34;;;;;;;5.07;1.03;;;;;;;23.47;38.78;100843.22;5057219;28;20453;-68
2022/06/13 11:37:04;;;;;;;4.20;1.23;;;;;;;23.84;36.27;100838.19;5057838;28;20481;-68
2022/06/13 11:39:37;;;;;;;4.13;1.30;;;;;;;23.01;38.10;100844.03;5058574;28;20456;-68
2022/06/13 11:42:05;;;;;;;2.73;1.10;;;;;;;21.96;40.22;100845.16;5059000;28;20468;-67
2022/06/13 11:44:32;;;;;;;2.50;1.10;;;;;;;20.66;42.08;100863.50;5057641;28;20445;-67
2022/06/13 11:47:01;;;;;;;5.17;1.47;;;;;;;20.02;44.67;100890.44;5056493;28;20564;-67
2022/06/13 11:49:37;;;;;;;2.60;1.00;;;;;;;18.29;45.40;100904.38;5038345;28;21014;-67
2022/06/13 11:55:19;;;;;;;4.77;0.90;;;;;;;16.48;49.54;100913.28;5018683;28;21150;-68
2022/06/13 11:57:52;;;;;;;2.00;0.63;;;;;;;16.59;49.59;100909.44;5018700;28;20439;-68
2022/06/13 12:00:48;;;;;;;2.50;0.80;;;;;;;16.32;51.50;100919.47;5018622;28;21009;-68
2022/06/13 12:03:18;;;;;;;2.33;1.20;;;;;;;16.33;54.59;100907.66;5057312;28;20455;-66
2022/06/13 12:05:50;;;;;;;0.93;0.70;;;;;;;15.71;58.76;100902.41;5061230;28;20503;-68